Time;durP1;ratioP1;P1;durP2;ratioP2;P2;SDS_P1;SDS_P2;PMS_P1;PMS_P2;Temp;Humidity;BMP_temperature;BMP_pressure;BME280_temperature;BME280_humidity;BME280_pressure;Samples;Min_cycle;Max_cycle;Signal;HPM_P1;HPM_P2
2019/07/02 00:00:33;;;;;;;6.849999;6.1;;;;;;;18.45;96.19922;95377.37;;;;
2019/07/02 00:01:34;;;;;;;6.849999;6.1;;;;;;;18.45;96.19922;95377.37;;;;
2019/07/02 00:02:35;;;;;;;6.849999;6.1;;;;;;;18.45;96.19922;95377.37;;;;
2019/07/02 00:03:36;;;;;;;7.2;5.849999;;;;;;;18.41;97.13086;95400.05;;;;
2019/07/02 00:04:37;;;;;;;7.2;5.849999;;;;;;;18.41;97.13086;95400.05;;;;
2019/07/02 00:05:38;;;;;;;7.2;5.849999;;;;;;;18.41;97.13086;95400.05;;;;
2019/07/02 00:06:40;;;;;;;7.2;5.849999;;;;;;;18.41;97.13086;95400.05;;;;
2019/07/02 00:07:41;;;;;;;7.2;5.849999;;;;;;;18.41;97.13086;95400.05;;;;
2019/07/02 00:08:42;;;;;;;7.2;5.849999;;;;;;;18.41;97.13086;95400.05;;;;
2019/07/02 00:09:43;;;;;;;7.2;5.849999;;;;;;;18.41;97.13086;95400.05;;;;
2019/07/02 00:10:44;;;;;;;7.2;5.849999;;;;;;;18.41;97.13086;95400.05;;;;
2019/07/02 00:11:45;;;;;;;7.2;5.849999;;;;;;;18.41;97.13086;95400.05;;;;
2019/07/02 00:12:46;;;;;;;7.2;5.849999;;;;;;;18.41;97.13086;95400.05;;;;
2019/07/02 00:13:47;;;;;;;8.65;6.100001;;;;;;;18.34;97.88477;95383.01;;;;
2019/07/02 00:14:48;;;;;;;8.65;6.100001;;;;;;;18.34;97.88477;95383.01;;;;
2019/07/02 00:15:49;;;;;;;8.65;6.100001;;;;;;;18.34;97.88477;95383.01;;;;
2019/07/02 00:16:51;;;;;;;8.65;6.100001;;;;;;;18.34;97.88477;95383.01;;;;
2019/07/02 00:17:52;;;;;;;8.65;6.100001;;;;;;;18.34;97.88477;95383.01;;;;
2019/07/02 00:18:53;;;;;;;8.65;6.100001;;;;;;;18.34;97.88477;95383.01;;;;
2019/07/02 00:19:54;;;;;;;8.65;6.100001;;;;;;;18.34;97.88477;95383.01;;;;
2019/07/02 00:20:55;;;;;;;8.65;6.100001;;;;;;;18.34;97.88477;95383.01;;;;
2019/07/02 00:21:56;;;;;;;8.65;6.100001;;;;;;;18.34;97.88477;95383.01;;;;
2019/07/02 00:22:57;;;;;;;8.65;6.100001;;;;;;;18.34;97.88477;95383.01;;;;
2019/07/02 00:23:58;;;;;;;8.65;6.100001;;;;;;;18.34;97.88477;95383.01;;;;
2019/07/02 00:24:59;;;;;;;8.25;6.45;;;;;;;18.4;98.39648;95403.35;;;;
2019/07/02 00:26:01;;;;;;;8.25;6.45;;;;;;;18.4;98.39648;95403.35;;;;
2019/07/02 00:27:02;;;;;;;8.25;6.45;;;;;;;18.4;98.39648;95403.35;;;;
2019/07/02 00:28:03;;;;;;;8.25;6.45;;;;;;;18.4;98.39648;95403.35;;;;
2019/07/02 00:29:04;;;;;;;8.25;6.45;;;;;;;18.4;98.39648;95403.35;;;;
2019/07/02 00:30:05;;;;;;;8.25;6.45;;;;;;;18.4;98.39648;95403.35;;;;
2019/07/02 00:31:07;;;;;;;8.25;6.45;;;;;;;18.4;98.39648;95403.35;;;;
2019/07/02 00:32:08;;;;;;;8.25;6.45;;;;;;;18.4;98.39648;95403.35;;;;
2019/07/02 00:33:09;;;;;;;8.25;6.45;;;;;;;18.4;98.39648;95403.35;;;;
2019/07/02 00:34:10;;;;;;;8.25;6.45;;;;;;;18.4;98.39648;95403.35;;;;
2019/07/02 00:35:11;;;;;;;7.45;5.699999;;;;;;;18.4;98.66504;95398.85;;;;
2019/07/02 00:36:12;;;;;;;7.45;5.699999;;;;;;;18.4;98.66504;95398.85;;;;
2019/07/02 00:37:14;;;;;;;7.45;5.699999;;;;;;;18.4;98.66504;95398.85;;;;
2019/07/02 00:38:15;;;;;;;7.45;5.699999;;;;;;;18.4;98.66504;95398.85;;;;
2019/07/02 00:39:16;;;;;;;7.45;5.699999;;;;;;;18.4;98.66504;95398.85;;;;
2019/07/02 00:40:17;;;;;;;7.45;5.699999;;;;;;;18.4;98.66504;95398.85;;;;
2019/07/02 00:41:18;;;;;;;7.45;5.699999;;;;;;;18.4;98.66504;95398.85;;;;
2019/07/02 00:42:19;;;;;;;7.45;5.699999;;;;;;;18.4;98.66504;95398.85;;;;
2019/07/02 00:43:20;;;;;;;7.45;5.699999;;;;;;;18.4;98.66504;95398.85;;;;
2019/07/02 00:44:21;;;;;;;7.45;5.699999;;;;;;;18.4;98.66504;95398.85;;;;
2019/07/02 00:45:22;;;;;;;7.45;5.699999;;;;;;;18.4;98.66504;95398.85;;;;
2019/07/02 00:46:23;;;;;;;6.749999;5.600001;;;;;;;18.45;99.00195;95411.14;;;;
2019/07/02 00:47:25;;;;;;;6.749999;5.600001;;;;;;;18.45;99.00195;95411.14;;;;
2019/07/02 00:48:26;;;;;;;6.749999;5.600001;;;;;;;18.45;99.00195;95411.14;;;;
2019/07/02 00:49:27;;;;;;;6.749999;5.600001;;;;;;;18.45;99.00195;95411.14;;;;
2019/07/02 00:50:28;;;;;;;6.749999;5.600001;;;;;;;18.45;99.00195;95411.14;;;;
2019/07/02 00:51:29;;;;;;;6.749999;5.600001;;;;;;;18.45;99.00195;95411.14;;;;
2019/07/02 00:52:30;;;;;;;6.749999;5.600001;;;;;;;18.45;99.00195;95411.14;;;;
2019/07/02 00:53:31;;;;;;;6.749999;5.600001;;;;;;;18.45;99.00195;95411.14;;;;
2019/07/02 00:54:32;;;;;;;6.749999;5.600001;;;;;;;18.45;99.00195;95411.14;;;;
2019/07/02 00:55:33;;;;;;;6.749999;5.600001;;;;;;;18.45;99.00195;95411.14;;;;
2019/07/02 00:56:34;;;;;;;7.6;6.15;;;;;;;18.42;99.33984;95449.58;;;;
2019/07/02 00:57:36;;;;;;;7.6;6.15;;;;;;;18.42;99.33984;95449.58;;;;
2019/07/02 00:58:37;;;;;;;7.6;6.15;;;;;;;18.42;99.33984;95449.58;;;;
2019/07/02 00:59:38;;;;;;;7.6;6.15;;;;;;;18.42;99.33984;95449.58;;;;
2019/07/02 01:00:39;;;;;;;7.6;6.15;;;;;;;18.42;99.33984;95449.58;;;;
2019/07/02 01:01:40;;;;;;;7.6;6.15;;;;;;;18.42;99.33984;95449.58;;;;
2019/07/02 01:02:42;;;;;;;7.6;6.15;;;;;;;18.42;99.33984;95449.58;;;;
2019/07/02 01:03:43;;;;;;;7.6;6.15;;;;;;;18.42;99.33984;95449.58;;;;
2019/07/02 01:04:44;;;;;;;7.6;6.15;;;;;;;18.42;99.33984;95449.58;;;;
2019/07/02 01:05:45;;;;;;;7.6;6.15;;;;;;;18.42;99.33984;95449.58;;;;
2019/07/02 01:06:48;;;;;;;6.65;5.649999;;;;;;;18.44;99.89551;95468.28;;;;
2019/07/02 01:07:50;;;;;;;6.65;5.649999;;;;;;;18.44;99.89551;95468.28;;;;
2019/07/02 01:08:51;;;;;;;6.65;5.649999;;;;;;;18.44;99.89551;95468.28;;;;
2019/07/02 01:09:52;;;;;;;6.65;5.649999;;;;;;;18.44;99.89551;95468.28;;;;
2019/07/02 01:10:53;;;;;;;6.65;5.649999;;;;;;;18.44;99.89551;95468.28;;;;
2019/07/02 01:11:54;;;;;;;6.65;5.649999;;;;;;;18.44;99.89551;95468.28;;;;
2019/07/02 01:12:55;;;;;;;6.65;5.649999;;;;;;;18.44;99.89551;95468.28;;;;
2019/07/02 01:13:56;;;;;;;6.65;5.649999;;;;;;;18.44;99.89551;95468.28;;;;
2019/07/02 01:14:58;;;;;;;6.65;5.649999;;;;;;;18.44;99.89551;95468.28;;;;
2019/07/02 01:15:59;;;;;;;6.65;5.649999;;;;;;;18.44;99.89551;95468.28;;;;
2019/07/02 01:17:01;;;;;;;6.65;5.649999;;;;;;;18.44;99.89551;95468.28;;;;
2019/07/02 01:18:02;;;;;;;6.950001;5.95;;;;;;;18.41;99.95313;95479.78;;;;
2019/07/02 01:19:03;;;;;;;6.950001;5.95;;;;;;;18.41;99.95313;95479.78;;;;
2019/07/02 01:20:04;;;;;;;6.950001;5.95;;;;;;;18.41;99.95313;95479.78;;;;
2019/07/02 01:21:07;;;;;;;6.950001;5.95;;;;;;;18.41;99.95313;95479.78;;;;
2019/07/02 01:22:09;;;;;;;6.950001;5.95;;;;;;;18.41;99.95313;95479.78;;;;
2019/07/02 01:23:10;;;;;;;6.950001;5.95;;;;;;;18.41;99.95313;95479.78;;;;
2019/07/02 01:24:11;;;;;;;6.950001;5.95;;;;;;;18.41;99.95313;95479.78;;;;
2019/07/02 01:25:12;;;;;;;6.950001;5.95;;;;;;;18.41;99.95313;95479.78;;;;
2019/07/02 01:26:13;;;;;;;6.950001;5.95;;;;;;;18.41;99.95313;95479.78;;;;
2019/07/02 01:27:15;;;;;;;6.950001;5.95;;;;;;;18.41;99.95313;95479.78;;;;
2019/07/02 01:28:16;;;;;;;8.200001;6.6;;;;;;;18.45;100;95491.39;;;;
2019/07/02 01:29:17;;;;;;;8.200001;6.6;;;;;;;18.45;100;95491.39;;;;
2019/07/02 01:30:18;;;;;;;8.200001;6.6;;;;;;;18.45;100;95491.39;;;;
2019/07/02 01:31:30;;;;;;;8.200001;6.6;;;;;;;18.45;100;95491.39;;;;
2019/07/02 01:32:31;;;;;;;8.200001;6.6;;;;;;;18.45;100;95491.39;;;;
2019/07/02 01:33:32;;;;;;;8.200001;6.6;;;;;;;18.45;100;95491.39;;;;
2019/07/02 01:34:34;;;;;;;8.200001;6.6;;;;;;;18.45;100;95491.39;;;;
2019/07/02 01:35:35;;;;;;;8.200001;6.6;;;;;;;18.45;100;95491.39;;;;
2019/07/02 01:36:36;;;;;;;8.200001;6.6;;;;;;;18.45;100;95491.39;;;;
2019/07/02 01:37:37;;;;;;;8.200001;6.6;;;;;;;18.45;100;95491.39;;;;
2019/07/02 01:38:38;;;;;;;10.7;6.1;;;;;;;18.48;100;95494.92;;;;
2019/07/02 01:39:39;;;;;;;10.7;6.1;;;;;;;18.48;100;95494.92;;;;
2019/07/02 01:40:40;;;;;;;10.7;6.1;;;;;;;18.48;100;95494.92;;;;
2019/07/02 01:41:42;;;;;;;10.7;6.1;;;;;;;18.48;100;95494.92;;;;
2019/07/02 01:42:43;;;;;;;10.7;6.1;;;;;;;18.48;100;95494.92;;;;
2019/07/02 01:43:45;;;;;;;10.7;6.1;;;;;;;18.48;100;95494.92;;;;
2019/07/02 01:44:46;;;;;;;10.7;6.1;;;;;;;18.48;100;95494.92;;;;
2019/07/02 01:45:47;;;;;;;10.7;6.1;;;;;;;18.48;100;95494.92;;;;
2019/07/02 01:46:48;;;;;;;10.7;6.1;;;;;;;18.48;100;95494.92;;;;
2019/07/02 01:47:49;;;;;;;10.7;6.1;;;;;;;18.48;100;95494.92;;;;
2019/07/02 01:48:50;;;;;;;10.7;6.1;;;;;;;18.48;100;95494.92;;;;
2019/07/02 01:49:52;;;;;;;8.15;6.25;;;;;;;18.64;100;95511.95;;;;
2019/07/02 01:50:53;;;;;;;8.15;6.25;;;;;;;18.64;100;95511.95;;;;
2019/07/02 01:51:54;;;;;;;8.15;6.25;;;;;;;18.64;100;95511.95;;;;
2019/07/02 01:52:55;;;;;;;8.15;6.25;;;;;;;18.64;100;95511.95;;;;
2019/07/02 01:53:56;;;;;;;8.15;6.25;;;;;;;18.64;100;95511.95;;;;
2019/07/02 01:54:57;;;;;;;8.15;6.25;;;;;;;18.64;100;95511.95;;;;
2019/07/02 01:55:58;;;;;;;8.15;6.25;;;;;;;18.64;100;95511.95;;;;
2019/07/02 01:56:59;;;;;;;8.15;6.25;;;;;;;18.64;100;95511.95;;;;
2019/07/02 01:58:01;;;;;;;8.15;6.25;;;;;;;18.64;100;95511.95;;;;
2019/07/02 01:59:02;;;;;;;8.15;6.25;;;;;;;18.64;100;95511.95;;;;
2019/07/02 02:00:03;;;;;;;8.15;6.25;;;;;;;18.76;100;95526.53;;;;
2019/07/02 02:01:05;;;;;;;8.15;6.25;;;;;;;18.76;100;95526.53;;;;
2019/07/02 02:02:07;;;;;;;8.15;6.25;;;;;;;18.76;100;95526.53;;;;
2019/07/02 02:03:08;;;;;;;8.15;6.25;;;;;;;18.76;100;95526.53;;;;
2019/07/02 02:04:09;;;;;;;8.15;6.25;;;;;;;18.76;100;95526.53;;;;
2019/07/02 02:05:10;;;;;;;8.15;6.25;;;;;;;18.76;100;95526.53;;;;
2019/07/02 02:06:26;;;;;;;8.15;6.25;;;;;;;18.76;100;95526.53;;;;
2019/07/02 02:07:27;;;;;;;8.15;6.25;;;;;;;18.76;100;95526.53;;;;
2019/07/02 02:08:28;;;;;;;8.15;6.25;;;;;;;18.76;100;95526.53;;;;
2019/07/02 02:09:29;;;;;;;8.15;6.25;;;;;;;18.76;100;95526.53;;;;
2019/07/02 02:10:30;;;;;;;8.8;5.85;;;;;;;18.96;100;95517.01;;;;
2019/07/02 02:11:32;;;;;;;8.8;5.85;;;;;;;18.96;100;95517.01;;;;
2019/07/02 02:12:33;;;;;;;8.8;5.85;;;;;;;18.96;100;95517.01;;;;
2019/07/02 02:13:34;;;;;;;8.8;5.85;;;;;;;18.96;100;95517.01;;;;
2019/07/02 02:14:35;;;;;;;8.8;5.85;;;;;;;18.96;100;95517.01;;;;
2019/07/02 02:15:37;;;;;;;8.8;5.85;;;;;;;18.96;100;95517.01;;;;
2019/07/02 02:16:38;;;;;;;8.8;5.85;;;;;;;18.96;100;95517.01;;;;
2019/07/02 02:17:40;;;;;;;8.8;5.85;;;;;;;18.96;100;95517.01;;;;
2019/07/02 02:18:41;;;;;;;8.8;5.85;;;;;;;18.96;100;95517.01;;;;
2019/07/02 02:19:42;;;;;;;8.8;5.85;;;;;;;18.96;100;95517.01;;;;
2019/07/02 02:20:44;;;;;;;8.8;5.85;;;;;;;18.96;100;95517.01;;;;
2019/07/02 02:21:45;;;;;;;9.45;6.9;;;;;;;18.84;100;95508.7;;;;
2019/07/02 02:22:46;;;;;;;9.45;6.9;;;;;;;18.84;100;95508.7;;;;
2019/07/02 02:23:47;;;;;;;9.45;6.9;;;;;;;18.84;100;95508.7;;;;
2019/07/02 02:24:49;;;;;;;9.45;6.9;;;;;;;18.84;100;95508.7;;;;
2019/07/02 02:25:50;;;;;;;9.45;6.9;;;;;;;18.84;100;95508.7;;;;
2019/07/02 02:26:51;;;;;;;9.45;6.9;;;;;;;18.84;100;95508.7;;;;
2019/07/02 02:27:52;;;;;;;9.45;6.9;;;;;;;18.84;100;95508.7;;;;
2019/07/02 02:28:53;;;;;;;9.45;6.9;;;;;;;18.84;100;95508.7;;;;
2019/07/02 02:29:55;;;;;;;9.45;6.9;;;;;;;18.84;100;95508.7;;;;
2019/07/02 02:30:56;;;;;;;9.45;6.9;;;;;;;18.84;100;95508.7;;;;
2019/07/02 02:31:57;;;;;;;9.55;7.7;;;;;;;18.56;100;95487.52;;;;
2019/07/02 02:32:58;;;;;;;9.55;7.7;;;;;;;18.56;100;95487.52;;;;
2019/07/02 02:33:59;;;;;;;9.55;7.7;;;;;;;18.56;100;95487.52;;;;
2019/07/02 02:35:01;;;;;;;9.55;7.7;;;;;;;18.56;100;95487.52;;;;
2019/07/02 02:36:02;;;;;;;9.55;7.7;;;;;;;18.56;100;95487.52;;;;
2019/07/02 02:37:03;;;;;;;9.55;7.7;;;;;;;18.56;100;95487.52;;;;
2019/07/02 02:38:04;;;;;;;9.55;7.7;;;;;;;18.56;100;95487.52;;;;
2019/07/02 02:39:05;;;;;;;9.55;7.7;;;;;;;18.56;100;95487.52;;;;
2019/07/02 02:40:06;;;;;;;9.55;7.7;;;;;;;18.56;100;95487.52;;;;
2019/07/02 02:41:09;;;;;;;9.55;7.7;;;;;;;18.56;100;95487.52;;;;
2019/07/02 02:42:10;;;;;;;9.55;7.7;;;;;;;18.56;100;95487.52;;;;
2019/07/02 02:43:12;;;;;;;8.100001;7;;;;;;;18.29;100;95470.51;;;;
2019/07/02 02:44:13;;;;;;;8.100001;7;;;;;;;18.29;100;95470.51;;;;
2019/07/02 02:45:14;;;;;;;8.100001;7;;;;;;;18.29;100;95470.51;;;;
2019/07/02 02:46:16;;;;;;;8.100001;7;;;;;;;18.29;100;95470.51;;;;
2019/07/02 02:47:17;;;;;;;8.100001;7;;;;;;;18.29;100;95470.51;;;;
2019/07/02 02:48:18;;;;;;;8.100001;7;;;;;;;18.29;100;95470.51;;;;
2019/07/02 02:49:19;;;;;;;8.100001;7;;;;;;;18.29;100;95470.51;;;;
2019/07/02 02:50:21;;;;;;;8.100001;7;;;;;;;18.29;100;95470.51;;;;
2019/07/02 02:51:22;;;;;;;8.100001;7;;;;;;;18.29;100;95470.51;;;;
2019/07/02 02:52:23;;;;;;;8.100001;7;;;;;;;18.29;100;95470.51;;;;
2019/07/02 02:53:24;;;;;;;9.65;7.25;;;;;;;18.18;100;95495.29;;;;
2019/07/02 02:54:25;;;;;;;9.65;7.25;;;;;;;18.18;100;95495.29;;;;
2019/07/02 02:55:26;;;;;;;9.65;7.25;;;;;;;18.18;100;95495.29;;;;
2019/07/02 02:56:27;;;;;;;9.65;7.25;;;;;;;18.18;100;95495.29;;;;
2019/07/02 02:57:28;;;;;;;9.65;7.25;;;;;;;18.18;100;95495.29;;;;
2019/07/02 02:58:29;;;;;;;9.65;7.25;;;;;;;18.18;100;95495.29;;;;
2019/07/02 02:59:31;;;;;;;9.65;7.25;;;;;;;18.18;100;95495.29;;;;
2019/07/02 03:00:32;;;;;;;9.65;7.25;;;;;;;18.18;100;95495.29;;;;
2019/07/02 03:01:33;;;;;;;9.65;7.25;;;;;;;18.18;100;95495.29;;;;
2019/07/02 03:02:34;;;;;;;9.65;7.25;;;;;;;18.18;100;95495.29;;;;
2019/07/02 03:03:35;;;;;;;9.85;7.849999;;;;;;;18.04;100;95506.13;;;;
2019/07/02 03:04:36;;;;;;;9.85;7.849999;;;;;;;18.04;100;95506.13;;;;
2019/07/02 03:05:37;;;;;;;9.85;7.849999;;;;;;;18.04;100;95506.13;;;;
2019/07/02 03:06:38;;;;;;;9.85;7.849999;;;;;;;18.04;100;95506.13;;;;
2019/07/02 03:07:39;;;;;;;9.85;7.849999;;;;;;;18.04;100;95506.13;;;;
2019/07/02 03:08:41;;;;;;;9.85;7.849999;;;;;;;18.04;100;95506.13;;;;
2019/07/02 03:09:42;;;;;;;9.85;7.849999;;;;;;;18.04;100;95506.13;;;;
2019/07/02 03:10:43;;;;;;;9.85;7.849999;;;;;;;18.04;100;95506.13;;;;
2019/07/02 03:11:44;;;;;;;9.85;7.849999;;;;;;;18.04;100;95506.13;;;;
2019/07/02 03:12:45;;;;;;;9.85;7.849999;;;;;;;18.04;100;95506.13;;;;
2019/07/02 03:13:46;;;;;;;9.85;7.849999;;;;;;;18.04;100;95506.13;;;;
2019/07/02 03:14:47;;;;;;;9.799999;7.849999;;;;;;;18;100;95543.83;;;;
2019/07/02 03:15:48;;;;;;;9.799999;7.849999;;;;;;;18;100;95543.83;;;;
2019/07/02 03:16:49;;;;;;;9.799999;7.849999;;;;;;;18;100;95543.83;;;;
2019/07/02 03:17:51;;;;;;;9.799999;7.849999;;;;;;;18;100;95543.83;;;;
2019/07/02 03:18:52;;;;;;;9.799999;7.849999;;;;;;;18;100;95543.83;;;;
2019/07/02 03:19:53;;;;;;;9.799999;7.849999;;;;;;;18;100;95543.83;;;;
2019/07/02 03:20:54;;;;;;;9.799999;7.849999;;;;;;;18;100;95543.83;;;;
2019/07/02 03:21:55;;;;;;;9.799999;7.849999;;;;;;;18;100;95543.83;;;;
2019/07/02 03:22:56;;;;;;;9.799999;7.849999;;;;;;;18;100;95543.83;;;;
2019/07/02 03:23:57;;;;;;;9.799999;7.849999;;;;;;;18;100;95543.83;;;;
2019/07/02 03:24:58;;;;;;;9.450002;7.2;;;;;;;17.93;100;95548.22;;;;
2019/07/02 03:25:59;;;;;;;9.450002;7.2;;;;;;;17.93;100;95548.22;;;;
2019/07/02 03:27:00;;;;;;;9.450002;7.2;;;;;;;17.93;100;95548.22;;;;
2019/07/02 03:28:01;;;;;;;9.450002;7.2;;;;;;;17.93;100;95548.22;;;;
2019/07/02 03:29:02;;;;;;;9.450002;7.2;;;;;;;17.93;100;95548.22;;;;
2019/07/02 03:30:03;;;;;;;9.450002;7.2;;;;;;;17.93;100;95548.22;;;;
2019/07/02 03:31:06;;;;;;;9.450002;7.2;;;;;;;17.93;100;95548.22;;;;
2019/07/02 03:32:07;;;;;;;9.450002;7.2;;;;;;;17.93;100;95548.22;;;;
2019/07/02 03:33:08;;;;;;;9.450002;7.2;;;;;;;17.93;100;95548.22;;;;
2019/07/02 03:34:09;;;;;;;9.450002;7.2;;;;;;;17.93;100;95548.22;;;;
2019/07/02 03:35:10;;;;;;;9.450002;7.2;;;;;;;17.93;100;95548.22;;;;
2019/07/02 03:36:11;;;;;;;10.65;6.5;;;;;;;17.91;100;95537.7;;;;
2019/07/02 03:37:12;;;;;;;10.65;6.5;;;;;;;17.91;100;95537.7;;;;
2019/07/02 03:38:14;;;;;;;10.65;6.5;;;;;;;17.91;100;95537.7;;;;
2019/07/02 03:39:15;;;;;;;10.65;6.5;;;;;;;17.91;100;95537.7;;;;
2019/07/02 03:40:16;;;;;;;10.65;6.5;;;;;;;17.91;100;95537.7;;;;
2019/07/02 03:41:17;;;;;;;10.65;6.5;;;;;;;17.91;100;95537.7;;;;
2019/07/02 03:42:18;;;;;;;10.65;6.5;;;;;;;17.91;100;95537.7;;;;
2019/07/02 03:43:19;;;;;;;10.65;6.5;;;;;;;17.91;100;95537.7;;;;
2019/07/02 03:44:20;;;;;;;10.65;6.5;;;;;;;17.91;100;95537.7;;;;
2019/07/02 03:45:22;;;;;;;10.65;6.5;;;;;;;17.91;100;95537.7;;;;
2019/07/02 03:46:23;;;;;;;7.4;5.8;;;;;;;17.81;100;95537.16;;;;
2019/07/02 03:47:24;;;;;;;7.4;5.8;;;;;;;17.81;100;95537.16;;;;
2019/07/02 03:48:25;;;;;;;7.4;5.8;;;;;;;17.81;100;95537.16;;;;
2019/07/02 03:49:26;;;;;;;7.4;5.8;;;;;;;17.81;100;95537.16;;;;
2019/07/02 03:50:28;;;;;;;7.4;5.8;;;;;;;17.81;100;95537.16;;;;
2019/07/02 03:51:29;;;;;;;7.4;5.8;;;;;;;17.81;100;95537.16;;;;
2019/07/02 03:52:30;;;;;;;7.4;5.8;;;;;;;17.81;100;95537.16;;;;
2019/07/02 03:53:31;;;;;;;7.4;5.8;;;;;;;17.81;100;95537.16;;;;
2019/07/02 03:54:32;;;;;;;7.4;5.8;;;;;;;17.81;100;95537.16;;;;
2019/07/02 03:55:33;;;;;;;7.4;5.8;;;;;;;17.81;100;95537.16;;;;
2019/07/02 03:56:34;;;;;;;7.100001;5.200001;;;;;;;17.78;100;95523.24;;;;
2019/07/02 03:57:35;;;;;;;7.100001;5.200001;;;;;;;17.78;100;95523.24;;;;
2019/07/02 03:58:36;;;;;;;7.100001;5.200001;;;;;;;17.78;100;95523.24;;;;
2019/07/02 03:59:37;;;;;;;7.100001;5.200001;;;;;;;17.78;100;95523.24;;;;
2019/07/02 04:00:38;;;;;;;7.100001;5.200001;;;;;;;17.78;100;95523.24;;;;
2019/07/02 04:01:39;;;;;;;7.100001;5.200001;;;;;;;17.78;100;95523.24;;;;
2019/07/02 04:02:40;;;;;;;7.100001;5.200001;;;;;;;17.78;100;95523.24;;;;
2019/07/02 04:03:42;;;;;;;7.100001;5.200001;;;;;;;17.78;100;95523.24;;;;
2019/07/02 04:04:43;;;;;;;7.100001;5.200001;;;;;;;17.78;100;95523.24;;;;
2019/07/02 04:05:44;;;;;;;7.100001;5.200001;;;;;;;17.78;100;95523.24;;;;
2019/07/02 04:06:45;;;;;;;7.100001;5.200001;;;;;;;17.78;100;95523.24;;;;
2019/07/02 04:07:46;;;;;;;8.299999;6.2;;;;;;;17.7;100;95474.64;;;;
2019/07/02 04:08:47;;;;;;;8.299999;6.2;;;;;;;17.7;100;95474.64;;;;
2019/07/02 04:09:48;;;;;;;8.299999;6.2;;;;;;;17.7;100;95474.64;;;;
2019/07/02 04:10:49;;;;;;;8.299999;6.2;;;;;;;17.7;100;95474.64;;;;
2019/07/02 04:11:50;;;;;;;8.299999;6.2;;;;;;;17.7;100;95474.64;;;;
2019/07/02 04:12:51;;;;;;;8.299999;6.2;;;;;;;17.7;100;95474.64;;;;
2019/07/02 04:13:52;;;;;;;8.299999;6.2;;;;;;;17.7;100;95474.64;;;;
2019/07/02 04:14:53;;;;;;;8.299999;6.2;;;;;;;17.7;100;95474.64;;;;
2019/07/02 04:15:55;;;;;;;8.299999;6.2;;;;;;;17.7;100;95474.64;;;;
2019/07/02 04:16:56;;;;;;;8.299999;6.2;;;;;;;17.7;100;95474.64;;;;
2019/07/02 04:17:57;;;;;;;9.9;7.05;;;;;;;17.63;100;95520.37;;;;
2019/07/02 04:18:58;;;;;;;9.9;7.05;;;;;;;17.63;100;95520.37;;;;
2019/07/02 04:19:59;;;;;;;9.9;7.05;;;;;;;17.63;100;95520.37;;;;
2019/07/02 04:21:00;;;;;;;9.9;7.05;;;;;;;17.63;100;95520.37;;;;
2019/07/02 04:22:01;;;;;;;9.9;7.05;;;;;;;17.63;100;95520.37;;;;
2019/07/02 04:23:02;;;;;;;9.9;7.05;;;;;;;17.63;100;95520.37;;;;
2019/07/02 04:24:03;;;;;;;9.9;7.05;;;;;;;17.63;100;95520.37;;;;
2019/07/02 04:25:04;;;;;;;9.9;7.05;;;;;;;17.63;100;95520.37;;;;
2019/07/02 04:26:06;;;;;;;9.9;7.05;;;;;;;17.63;100;95520.37;;;;
2019/07/02 04:27:07;;;;;;;9.9;7.05;;;;;;;17.63;100;95520.37;;;;
2019/07/02 04:28:09;;;;;;;9.9;7.05;;;;;;;17.63;100;95520.37;;;;
2019/07/02 04:29:10;;;;;;;8.000001;5.65;;;;;;;17.5;100;95519.55;;;;
2019/07/02 04:30:11;;;;;;;8.000001;5.65;;;;;;;17.5;100;95519.55;;;;
2019/07/02 04:31:36;;;;;;;8.000001;5.65;;;;;;;17.5;100;95519.55;;;;
2019/07/02 04:32:42;;;;;;;8.000001;5.65;;;;;;;17.5;100;95519.55;;;;
2019/07/02 04:33:43;;;;;;;8.000001;5.65;;;;;;;17.5;100;95519.55;;;;
2019/07/02 04:34:44;;;;;;;8.000001;5.65;;;;;;;17.5;100;95519.55;;;;
2019/07/02 04:35:46;;;;;;;8.000001;5.65;;;;;;;17.5;100;95519.55;;;;
2019/07/02 04:36:47;;;;;;;8.000001;5.65;;;;;;;17.5;100;95519.55;;;;
2019/07/02 04:37:48;;;;;;;8.000001;5.65;;;;;;;17.5;100;95519.55;;;;
2019/07/02 04:38:49;;;;;;;8.000001;5.65;;;;;;;17.5;100;95519.55;;;;
2019/07/02 04:39:50;;;;;;;7.7;6.400001;;;;;;;17.56;100;95503.58;;;;
2019/07/02 04:40:51;;;;;;;7.7;6.400001;;;;;;;17.56;100;95503.58;;;;
2019/07/02 04:41:52;;;;;;;7.7;6.400001;;;;;;;17.56;100;95503.58;;;;
2019/07/02 04:42:54;;;;;;;7.7;6.400001;;;;;;;17.56;100;95503.58;;;;
2019/07/02 04:43:56;;;;;;;7.7;6.400001;;;;;;;17.56;100;95503.58;;;;
2019/07/02 04:44:57;;;;;;;7.7;6.400001;;;;;;;17.56;100;95503.58;;;;
2019/07/02 04:45:58;;;;;;;7.7;6.400001;;;;;;;17.56;100;95503.58;;;;
2019/07/02 04:46:59;;;;;;;7.7;6.400001;;;;;;;17.56;100;95503.58;;;;
2019/07/02 04:48:00;;;;;;;7.7;6.400001;;;;;;;17.56;100;95503.58;;;;
2019/07/02 04:49:02;;;;;;;7.7;6.400001;;;;;;;17.56;100;95503.58;;;;
2019/07/02 04:50:03;;;;;;;8.400001;6.7;;;;;;;17.64;100;95506.18;;;;
2019/07/02 04:51:04;;;;;;;8.400001;6.7;;;;;;;17.64;100;95506.18;;;;
2019/07/02 04:52:06;;;;;;;8.400001;6.7;;;;;;;17.64;100;95506.18;;;;
2019/07/02 04:53:07;;;;;;;8.400001;6.7;;;;;;;17.64;100;95506.18;;;;
2019/07/02 04:54:08;;;;;;;8.400001;6.7;;;;;;;17.64;100;95506.18;;;;
2019/07/02 04:55:10;;;;;;;8.400001;6.7;;;;;;;17.64;100;95506.18;;;;
2019/07/02 04:56:11;;;;;;;8.400001;6.7;;;;;;;17.64;100;95506.18;;;;
2019/07/02 04:57:12;;;;;;;8.400001;6.7;;;;;;;17.64;100;95506.18;;;;
2019/07/02 04:58:13;;;;;;;8.400001;6.7;;;;;;;17.64;100;95506.18;;;;
2019/07/02 04:59:14;;;;;;;8.400001;6.7;;;;;;;17.64;100;95506.18;;;;
2019/07/02 05:00:16;;;;;;;11;7.05;;;;;;;17.92;100;95519.67;;;;
2019/07/02 05:01:17;;;;;;;11;7.05;;;;;;;17.92;100;95519.67;;;;
2019/07/02 05:02:19;;;;;;;11;7.05;;;;;;;17.92;100;95519.67;;;;
2019/07/02 05:03:20;;;;;;;11;7.05;;;;;;;17.92;100;95519.67;;;;
2019/07/02 05:04:21;;;;;;;11;7.05;;;;;;;17.92;100;95519.67;;;;
2019/07/02 05:05:23;;;;;;;11;7.05;;;;;;;17.92;100;95519.67;;;;
2019/07/02 05:06:24;;;;;;;11;7.05;;;;;;;17.92;100;95519.67;;;;
2019/07/02 05:07:25;;;;;;;11;7.05;;;;;;;17.92;100;95519.67;;;;
2019/07/02 05:08:26;;;;;;;11;7.05;;;;;;;17.92;100;95519.67;;;;
2019/07/02 05:09:27;;;;;;;11;7.05;;;;;;;17.92;100;95519.67;;;;
2019/07/02 05:10:28;;;;;;;11;7.05;;;;;;;17.92;100;95519.67;;;;
2019/07/02 05:11:30;;;;;;;9.299999;7.15;;;;;;;18.39;100;95516.96;;;;
2019/07/02 05:12:32;;;;;;;9.299999;7.15;;;;;;;18.39;100;95516.96;;;;
2019/07/02 05:13:35;;;;;;;9.299999;7.15;;;;;;;18.39;100;95516.96;;;;
2019/07/02 05:14:37;;;;;;;9.299999;7.15;;;;;;;18.39;100;95516.96;;;;
2019/07/02 05:15:40;;;;;;;9.299999;7.15;;;;;;;18.39;100;95516.96;;;;
2019/07/02 05:16:42;;;;;;;9.299999;7.15;;;;;;;18.39;100;95516.96;;;;
2019/07/02 05:17:43;;;;;;;9.299999;7.15;;;;;;;18.39;100;95516.96;;;;
2019/07/02 05:18:44;;;;;;;9.299999;7.15;;;;;;;18.39;100;95516.96;;;;
2019/07/02 05:19:45;;;;;;;9.299999;7.15;;;;;;;18.39;100;95516.96;;;;
2019/07/02 05:20:46;;;;;;;9.299999;7.15;;;;;;;18.39;100;95516.96;;;;
2019/07/02 05:21:47;;;;;;;9.999999;8.049999;;;;;;;18.87;100;95528.11;;;;
2019/07/02 05:22:48;;;;;;;9.999999;8.049999;;;;;;;18.87;100;95528.11;;;;
2019/07/02 05:23:49;;;;;;;9.999999;8.049999;;;;;;;18.87;100;95528.11;;;;
2019/07/02 05:24:50;;;;;;;9.999999;8.049999;;;;;;;18.87;100;95528.11;;;;
2019/07/02 05:25:51;;;;;;;9.999999;8.049999;;;;;;;18.87;100;95528.11;;;;
2019/07/02 05:26:52;;;;;;;9.999999;8.049999;;;;;;;18.87;100;95528.11;;;;
2019/07/02 05:27:54;;;;;;;9.999999;8.049999;;;;;;;18.87;100;95528.11;;;;
2019/07/02 05:28:55;;;;;;;9.999999;8.049999;;;;;;;18.87;100;95528.11;;;;
2019/07/02 05:29:56;;;;;;;9.999999;8.049999;;;;;;;18.87;100;95528.11;;;;
2019/07/02 05:30:57;;;;;;;9.999999;8.049999;;;;;;;18.87;100;95528.11;;;;
2019/07/02 05:31:58;;;;;;;9.999999;8.049999;;;;;;;18.87;100;95528.11;;;;
2019/07/02 05:32:59;;;;;;;9.950001;7.65;;;;;;;19.16;100;95534.52;;;;
2019/07/02 05:34:00;;;;;;;9.950001;7.65;;;;;;;19.16;100;95534.52;;;;
2019/07/02 05:35:02;;;;;;;9.950001;7.65;;;;;;;19.16;100;95534.52;;;;
2019/07/02 05:36:03;;;;;;;9.950001;7.65;;;;;;;19.16;100;95534.52;;;;
2019/07/02 05:37:04;;;;;;;9.950001;7.65;;;;;;;19.16;100;95534.52;;;;
2019/07/02 05:38:05;;;;;;;9.950001;7.65;;;;;;;19.16;100;95534.52;;;;
2019/07/02 05:39:07;;;;;;;9.950001;7.65;;;;;;;19.16;100;95534.52;;;;
2019/07/02 05:40:08;;;;;;;9.950001;7.65;;;;;;;19.16;100;95534.52;;;;
2019/07/02 05:41:09;;;;;;;9.950001;7.65;;;;;;;19.16;100;95534.52;;;;
2019/07/02 05:42:10;;;;;;;9.950001;7.65;;;;;;;19.16;100;95534.52;;;;
2019/07/02 05:43:11;;;;;;;7.35;6.250001;;;;;;;19.39;100;95534.8;;;;
2019/07/02 05:44:13;;;;;;;7.35;6.250001;;;;;;;19.39;100;95534.8;;;;
2019/07/02 05:45:14;;;;;;;7.35;6.250001;;;;;;;19.39;100;95534.8;;;;
2019/07/02 05:46:15;;;;;;;7.35;6.250001;;;;;;;19.39;100;95534.8;;;;
2019/07/02 05:47:16;;;;;;;7.35;6.250001;;;;;;;19.39;100;95534.8;;;;
2019/07/02 05:48:17;;;;;;;7.35;6.250001;;;;;;;19.39;100;95534.8;;;;
2019/07/02 05:49:18;;;;;;;7.35;6.250001;;;;;;;19.39;100;95534.8;;;;
2019/07/02 05:50:20;;;;;;;7.35;6.250001;;;;;;;19.39;100;95534.8;;;;
2019/07/02 05:51:21;;;;;;;7.35;6.250001;;;;;;;19.39;100;95534.8;;;;
2019/07/02 05:52:22;;;;;;;7.35;6.250001;;;;;;;19.39;100;95534.8;;;;
2019/07/02 05:53:23;;;;;;;7.199999;6.5;;;;;;;19.49;100;95521.59;;;;
2019/07/02 05:54:24;;;;;;;7.199999;6.5;;;;;;;19.49;100;95521.59;;;;
2019/07/02 05:55:25;;;;;;;7.199999;6.5;;;;;;;19.49;100;95521.59;;;;